METAR Data
IDs: Format: Raw Decoded Include TAF

Data at: 0310 UTC 25 Feb 2021

EHKD 250255Z AUTO 20012KT 9999 OVC260 11/08 Q1022 BLU